sensor_id;sensor_type;location;lat;lon;timestamp;P1;durP1;ratioP1;P2;durP2;ratioP2
66619;SDS011;53484;51.356;6.732;2023-04-08T00:00:00;57.10;;;22.58;;
66619;SDS011;53484;51.356;6.732;2023-04-08T00:02:28;70.50;;;23.60;;
66619;SDS011;53484;51.356;6.732;2023-04-08T00:04:54;51.65;;;22.35;;
66619;SDS011;53484;51.356;6.732;2023-04-08T00:07:20;63.50;;;22.15;;
66619;SDS011;53484;51.356;6.732;2023-04-08T00:09:46;55.83;;;22.17;;
66619;SDS011;53484;51.356;6.732;2023-04-08T00:12:13;60.60;;;23.77;;
66619;SDS011;53484;51.356;6.732;2023-04-08T00:14:40;56.50;;;23.40;;
66619;SDS011;53484;51.356;6.732;2023-04-08T00:17:07;48.00;;;22.50;;
66619;SDS011;53484;51.356;6.732;2023-04-08T00:19:33;83.55;;;26.77;;
66619;SDS011;53484;51.356;6.732;2023-04-08T00:22:00;75.75;;;25.17;;
66619;SDS011;53484;51.356;6.732;2023-04-08T00:24:26;73.57;;;25.77;;
66619;SDS011;53484;51.356;6.732;2023-04-08T00:26:52;75.83;;;25.23;;
66619;SDS011;53484;51.356;6.732;2023-04-08T00:29:19;68.32;;;25.77;;
66619;SDS011;53484;51.356;6.732;2023-04-08T00:31:46;78.85;;;26.75;;
66619;SDS011;53484;51.356;6.732;2023-04-08T00:34:13;75.40;;;25.85;;
66619;SDS011;53484;51.356;6.732;2023-04-08T00:36:39;87.05;;;26.88;;
66619;SDS011;53484;51.356;6.732;2023-04-08T00:39:05;50.93;;;22.90;;
66619;SDS011;53484;51.356;6.732;2023-04-08T00:41:32;58.72;;;24.10;;
66619;SDS011;53484;51.356;6.732;2023-04-08T00:43:58;84.78;;;26.77;;
66619;SDS011;53484;51.356;6.732;2023-04-08T00:46:25;79.78;;;27.63;;
66619;SDS011;53484;51.356;6.732;2023-04-08T00:48:52;78.35;;;27.65;;
66619;SDS011;53484;51.356;6.732;2023-04-08T00:51:19;84.57;;;27.20;;
66619;SDS011;53484;51.356;6.732;2023-04-08T00:53:46;49.85;;;23.92;;
66619;SDS011;53484;51.356;6.732;2023-04-08T00:56:12;48.15;;;22.13;;
66619;SDS011;53484;51.356;6.732;2023-04-08T00:58:38;100.45;;;28.83;;
66619;SDS011;53484;51.356;6.732;2023-04-08T01:01:05;80.53;;;26.88;;
66619;SDS011;53484;51.356;6.732;2023-04-08T01:03:34;97.23;;;26.73;;
66619;SDS011;53484;51.356;6.732;2023-04-08T01:06:06;86.07;;;27.65;;
66619;SDS011;53484;51.356;6.732;2023-04-08T01:08:35;59.08;;;25.42;;
66619;SDS011;53484;51.356;6.732;2023-04-08T01:11:03;83.30;;;28.25;;
66619;SDS011;53484;51.356;6.732;2023-04-08T01:13:33;104.95;;;29.17;;
66619;SDS011;53484;51.356;6.732;2023-04-08T01:16:02;82.73;;;27.10;;
66619;SDS011;53484;51.356;6.732;2023-04-08T01:18:29;103.25;;;28.83;;
66619;SDS011;53484;51.356;6.732;2023-04-08T01:20:56;102.45;;;27.80;;
66619;SDS011;53484;51.356;6.732;2023-04-08T01:23:28;85.82;;;27.67;;
66619;SDS011;53484;51.356;6.732;2023-04-08T01:25:56;108.50;;;28.23;;
66619;SDS011;53484;51.356;6.732;2023-04-08T01:28:24;78.73;;;26.53;;
66619;SDS011;53484;51.356;6.732;2023-04-08T01:30:51;98.05;;;28.88;;
66619;SDS011;53484;51.356;6.732;2023-04-08T01:33:20;51.75;;;25.33;;
66619;SDS011;53484;51.356;6.732;2023-04-08T01:35:47;87.78;;;27.52;;
66619;SDS011;53484;51.356;6.732;2023-04-08T01:38:14;79.55;;;26.83;;
66619;SDS011;53484;51.356;6.732;2023-04-08T01:40:42;48.40;;;23.90;;
66619;SDS011;53484;51.356;6.732;2023-04-08T01:43:10;80.22;;;28.00;;
66619;SDS011;53484;51.356;6.732;2023-04-08T01:45:38;100.38;;;29.67;;
66619;SDS011;53484;51.356;6.732;2023-04-08T01:48:04;69.47;;;27.05;;
66619;SDS011;53484;51.356;6.732;2023-04-08T01:50:32;68.55;;;27.52;;
66619;SDS011;53484;51.356;6.732;2023-04-08T01:52:59;76.90;;;27.97;;
66619;SDS011;53484;51.356;6.732;2023-04-08T01:55:26;65.53;;;26.15;;
66619;SDS011;53484;51.356;6.732;2023-04-08T01:57:53;96.22;;;31.20;;
66619;SDS011;53484;51.356;6.732;2023-04-08T02:00:23;85.13;;;28.75;;
66619;SDS011;53484;51.356;6.732;2023-04-08T02:02:49;66.90;;;29.27;;
66619;SDS011;53484;51.356;6.732;2023-04-08T02:05:16;65.23;;;27.03;;
66619;SDS011;53484;51.356;6.732;2023-04-08T02:07:42;68.97;;;27.25;;
66619;SDS011;53484;51.356;6.732;2023-04-08T02:10:09;76.18;;;27.73;;
66619;SDS011;53484;51.356;6.732;2023-04-08T02:12:36;95.50;;;30.50;;
66619;SDS011;53484;51.356;6.732;2023-04-08T02:15:02;82.57;;;28.23;;
66619;SDS011;53484;51.356;6.732;2023-04-08T02:17:32;62.33;;;27.10;;
66619;SDS011;53484;51.356;6.732;2023-04-08T02:20:05;68.78;;;27.85;;
66619;SDS011;53484;51.356;6.732;2023-04-08T02:22:35;77.28;;;28.55;;
66619;SDS011;53484;51.356;6.732;2023-04-08T02:25:03;61.20;;;26.30;;
66619;SDS011;53484;51.356;6.732;2023-04-08T02:27:33;70.30;;;28.23;;
66619;SDS011;53484;51.356;6.732;2023-04-08T02:29:59;117.73;;;30.90;;
66619;SDS011;53484;51.356;6.732;2023-04-08T02:32:27;72.53;;;27.52;;
66619;SDS011;53484;51.356;6.732;2023-04-08T02:34:56;75.40;;;29.02;;
66619;SDS011;53484;51.356;6.732;2023-04-08T02:37:23;75.80;;;28.15;;
66619;SDS011;53484;51.356;6.732;2023-04-08T02:39:49;55.38;;;27.40;;
66619;SDS011;53484;51.356;6.732;2023-04-08T02:42:15;90.23;;;30.87;;
66619;SDS011;53484;51.356;6.732;2023-04-08T02:44:42;58.25;;;26.65;;
66619;SDS011;53484;51.356;6.732;2023-04-08T02:47:08;50.08;;;26.10;;
66619;SDS011;53484;51.356;6.732;2023-04-08T02:49:34;60.25;;;26.92;;
66619;SDS011;53484;51.356;6.732;2023-04-08T02:52:02;68.50;;;28.35;;
66619;SDS011;53484;51.356;6.732;2023-04-08T02:54:28;43.90;;;24.00;;
66619;SDS011;53484;51.356;6.732;2023-04-08T02:56:55;56.33;;;25.98;;
66619;SDS011;53484;51.356;6.732;2023-04-08T02:59:21;60.25;;;28.40;;
66619;SDS011;53484;51.356;6.732;2023-04-08T03:01:47;69.32;;;27.23;;
66619;SDS011;53484;51.356;6.732;2023-04-08T03:04:13;91.25;;;27.05;;
66619;SDS011;53484;51.356;6.732;2023-04-08T03:06:40;47.50;;;25.23;;
66619;SDS011;53484;51.356;6.732;2023-04-08T03:09:07;84.00;;;28.92;;
66619;SDS011;53484;51.356;6.732;2023-04-08T03:11:34;141.90;;;29.38;;
66619;SDS011;53484;51.356;6.732;2023-04-08T03:14:00;74.25;;;27.30;;
66619;SDS011;53484;51.356;6.732;2023-04-08T03:16:26;173.40;;;30.83;;
66619;SDS011;53484;51.356;6.732;2023-04-08T03:18:53;82.73;;;29.23;;
66619;SDS011;53484;51.356;6.732;2023-04-08T03:21:19;140.05;;;31.15;;
66619;SDS011;53484;51.356;6.732;2023-04-08T03:23:45;54.35;;;24.63;;
66619;SDS011;53484;51.356;6.732;2023-04-08T03:26:13;60.88;;;26.67;;
66619;SDS011;53484;51.356;6.732;2023-04-08T03:28:39;110.15;;;29.38;;
66619;SDS011;53484;51.356;6.732;2023-04-08T03:31:06;55.70;;;26.13;;
66619;SDS011;53484;51.356;6.732;2023-04-08T03:33:32;121.10;;;29.00;;
66619;SDS011;53484;51.356;6.732;2023-04-08T03:35:58;45.50;;;24.92;;
66619;SDS011;53484;51.356;6.732;2023-04-08T03:38:25;83.68;;;26.27;;
66619;SDS011;53484;51.356;6.732;2023-04-08T03:40:51;174.80;;;31.20;;
66619;SDS011;53484;51.356;6.732;2023-04-08T03:43:18;61.90;;;26.10;;
66619;SDS011;53484;51.356;6.732;2023-04-08T03:45:46;193.82;;;29.65;;
66619;SDS011;53484;51.356;6.732;2023-04-08T03:48:12;91.07;;;27.35;;
66619;SDS011;53484;51.356;6.732;2023-04-08T03:50:38;143.05;;;30.13;;
66619;SDS011;53484;51.356;6.732;2023-04-08T03:53:04;82.70;;;26.48;;
66619;SDS011;53484;51.356;6.732;2023-04-08T03:55:31;67.17;;;27.90;;
66619;SDS011;53484;51.356;6.732;2023-04-08T03:57:57;277.58;;;34.35;;
66619;SDS011;53484;51.356;6.732;2023-04-08T04:00:25;189.40;;;32.45;;
66619;SDS011;53484;51.356;6.732;2023-04-08T04:02:51;146.30;;;28.48;;
66619;SDS011;53484;51.356;6.732;2023-04-08T04:05:19;55.53;;;26.13;;
66619;SDS011;53484;51.356;6.732;2023-04-08T04:07:45;39.67;;;22.10;;
66619;SDS011;53484;51.356;6.732;2023-04-08T04:10:11;44.30;;;23.88;;
66619;SDS011;53484;51.356;6.732;2023-04-08T04:12:38;318.60;;;38.47;;
66619;SDS011;53484;51.356;6.732;2023-04-08T04:15:04;64.38;;;27.67;;
66619;SDS011;53484;51.356;6.732;2023-04-08T04:17:32;138.38;;;32.55;;
66619;SDS011;53484;51.356;6.732;2023-04-08T04:19:58;160.60;;;34.37;;
66619;SDS011;53484;51.356;6.732;2023-04-08T04:22:25;71.32;;;29.25;;
66619;SDS011;53484;51.356;6.732;2023-04-08T04:24:51;207.98;;;39.08;;
66619;SDS011;53484;51.356;6.732;2023-04-08T04:27:17;212.75;;;38.30;;
66619;SDS011;53484;51.356;6.732;2023-04-08T04:29:44;215.82;;;36.42;;
66619;SDS011;53484;51.356;6.732;2023-04-08T04:32:10;257.77;;;41.17;;
66619;SDS011;53484;51.356;6.732;2023-04-08T04:34:38;254.00;;;38.50;;
66619;SDS011;53484;51.356;6.732;2023-04-08T04:37:04;118.28;;;33.25;;
66619;SDS011;53484;51.356;6.732;2023-04-08T04:39:30;303.73;;;42.10;;
66619;SDS011;53484;51.356;6.732;2023-04-08T04:41:57;125.85;;;35.13;;
66619;SDS011;53484;51.356;6.732;2023-04-08T04:44:23;236.83;;;35.67;;
66619;SDS011;53484;51.356;6.732;2023-04-08T04:46:49;316.42;;;38.50;;
66619;SDS011;53484;51.356;6.732;2023-04-08T04:49:15;774.58;;;61.60;;
66619;SDS011;53484;51.356;6.732;2023-04-08T04:51:43;225.40;;;33.97;;
66619;SDS011;53484;51.356;6.732;2023-04-08T04:54:09;590.72;;;50.33;;
66619;SDS011;53484;51.356;6.732;2023-04-08T04:56:36;142.33;;;25.77;;
66619;SDS011;53484;51.356;6.732;2023-04-08T04:59:02;558.83;;;48.03;;
66619;SDS011;53484;51.356;6.732;2023-04-08T05:01:29;76.30;;;25.20;;
66619;SDS011;53484;51.356;6.732;2023-04-08T05:03:55;121.30;;;25.65;;
66619;SDS011;53484;51.356;6.732;2023-04-08T05:06:21;781.75;;;55.80;;
66619;SDS011;53484;51.356;6.732;2023-04-08T05:08:49;43.77;;;23.40;;
66619;SDS011;53484;51.356;6.732;2023-04-08T05:11:16;83.25;;;25.75;;
66619;SDS011;53484;51.356;6.732;2023-04-08T05:13:43;537.28;;;47.17;;
66619;SDS011;53484;51.356;6.732;2023-04-08T05:16:09;726.33;;;59.15;;
66619;SDS011;53484;51.356;6.732;2023-04-08T05:18:35;123.65;;;29.95;;
66619;SDS011;53484;51.356;6.732;2023-04-08T05:21:02;198.17;;;33.77;;
66619;SDS011;53484;51.356;6.732;2023-04-08T05:23:28;332.10;;;40.50;;
66619;SDS011;53484;51.356;6.732;2023-04-08T05:25:56;263.17;;;37.13;;
66619;SDS011;53484;51.356;6.732;2023-04-08T05:28:25;181.43;;;31.75;;
66619;SDS011;53484;51.356;6.732;2023-04-08T05:30:51;553.03;;;53.25;;
66619;SDS011;53484;51.356;6.732;2023-04-08T05:33:18;130.77;;;30.83;;
66619;SDS011;53484;51.356;6.732;2023-04-08T05:35:45;164.48;;;32.78;;
66619;SDS011;53484;51.356;6.732;2023-04-08T05:38:11;644.25;;;56.78;;
66619;SDS011;53484;51.356;6.732;2023-04-08T05:40:38;773.80;;;63.97;;
66619;SDS011;53484;51.356;6.732;2023-04-08T05:43:05;169.80;;;32.03;;
66619;SDS011;53484;51.356;6.732;2023-04-08T05:45:32;48.90;;;22.43;;
66619;SDS011;53484;51.356;6.732;2023-04-08T05:47:58;658.83;;;58.08;;
66619;SDS011;53484;51.356;6.732;2023-04-08T05:50:24;829.72;;;73.60;;
66619;SDS011;53484;51.356;6.732;2023-04-08T05:52:53;427.65;;;48.08;;
66619;SDS011;53484;51.356;6.732;2023-04-08T05:55:19;547.25;;;58.65;;
66619;SDS011;53484;51.356;6.732;2023-04-08T05:57:46;358.77;;;47.50;;
66619;SDS011;53484;51.356;6.732;2023-04-08T06:00:14;422.73;;;51.65;;
66619;SDS011;53484;51.356;6.732;2023-04-08T06:02:41;273.45;;;43.20;;
66619;SDS011;53484;51.356;6.732;2023-04-08T06:05:07;402.45;;;49.92;;
66619;SDS011;53484;51.356;6.732;2023-04-08T06:07:34;555.55;;;57.17;;
66619;SDS011;53484;51.356;6.732;2023-04-08T06:10:00;407.73;;;47.57;;
66619;SDS011;53484;51.356;6.732;2023-04-08T06:12:27;89.75;;;31.50;;
66619;SDS011;53484;51.356;6.732;2023-04-08T06:14:55;92.22;;;30.92;;
66619;SDS011;53484;51.356;6.732;2023-04-08T06:17:22;72.82;;;25.63;;
66619;SDS011;53484;51.356;6.732;2023-04-08T06:19:50;305.15;;;46.15;;
66619;SDS011;53484;51.356;6.732;2023-04-08T06:22:16;77.33;;;30.37;;
66619;SDS011;53484;51.356;6.732;2023-04-08T06:24:43;367.55;;;45.97;;
66619;SDS011;53484;51.356;6.732;2023-04-08T06:27:09;264.92;;;39.47;;
66619;SDS011;53484;51.356;6.732;2023-04-08T06:29:35;727.63;;;69.82;;
66619;SDS011;53484;51.356;6.732;2023-04-08T06:32:02;347.00;;;45.97;;
66619;SDS011;53484;51.356;6.732;2023-04-08T06:34:29;125.53;;;35.73;;
66619;SDS011;53484;51.356;6.732;2023-04-08T06:36:57;439.55;;;51.13;;
66619;SDS011;53484;51.356;6.732;2023-04-08T06:39:23;819.13;;;70.75;;
66619;SDS011;53484;51.356;6.732;2023-04-08T06:41:50;129.23;;;35.80;;
66619;SDS011;53484;51.356;6.732;2023-04-08T06:44:16;109.60;;;36.13;;
66619;SDS011;53484;51.356;6.732;2023-04-08T06:46:42;125.70;;;28.20;;
66619;SDS011;53484;51.356;6.732;2023-04-08T06:49:09;80.25;;;28.08;;
66619;SDS011;53484;51.356;6.732;2023-04-08T06:51:37;294.92;;;45.30;;
66619;SDS011;53484;51.356;6.732;2023-04-08T06:54:03;125.50;;;33.55;;
66619;SDS011;53484;51.356;6.732;2023-04-08T06:56:29;451.70;;;50.72;;
66619;SDS011;53484;51.356;6.732;2023-04-08T06:58:55;127.60;;;31.20;;
66619;SDS011;53484;51.356;6.732;2023-04-08T07:01:22;101.70;;;33.10;;
66619;SDS011;53484;51.356;6.732;2023-04-08T07:03:49;192.60;;;39.58;;
66619;SDS011;53484;51.356;6.732;2023-04-08T07:06:15;105.05;;;32.22;;
66619;SDS011;53484;51.356;6.732;2023-04-08T07:08:43;106.28;;;29.85;;
66619;SDS011;53484;51.356;6.732;2023-04-08T07:11:09;108.07;;;34.43;;
66619;SDS011;53484;51.356;6.732;2023-04-08T07:13:36;142.73;;;31.10;;
66619;SDS011;53484;51.356;6.732;2023-04-08T07:16:02;176.32;;;35.53;;
66619;SDS011;53484;51.356;6.732;2023-04-08T07:18:28;300.30;;;48.08;;
66619;SDS011;53484;51.356;6.732;2023-04-08T07:20:55;169.27;;;40.28;;
66619;SDS011;53484;51.356;6.732;2023-04-08T07:23:22;184.07;;;39.77;;
66619;SDS011;53484;51.356;6.732;2023-04-08T07:25:49;150.77;;;38.08;;
66619;SDS011;53484;51.356;6.732;2023-04-08T07:28:16;208.68;;;42.10;;
66619;SDS011;53484;51.356;6.732;2023-04-08T07:30:43;109.00;;;36.58;;
66619;SDS011;53484;51.356;6.732;2023-04-08T07:33:09;110.93;;;35.35;;
66619;SDS011;53484;51.356;6.732;2023-04-08T07:35:35;156.70;;;41.30;;
66619;SDS011;53484;51.356;6.732;2023-04-08T07:38:01;106.00;;;34.13;;
66619;SDS011;53484;51.356;6.732;2023-04-08T07:40:28;74.82;;;30.35;;
66619;SDS011;53484;51.356;6.732;2023-04-08T07:42:56;142.88;;;36.58;;
66619;SDS011;53484;51.356;6.732;2023-04-08T07:45:22;68.15;;;29.77;;
66619;SDS011;53484;51.356;6.732;2023-04-08T07:47:48;99.23;;;31.40;;
66619;SDS011;53484;51.356;6.732;2023-04-08T07:50:15;66.38;;;27.13;;
66619;SDS011;53484;51.356;6.732;2023-04-08T07:52:41;52.60;;;23.15;;
66619;SDS011;53484;51.356;6.732;2023-04-08T07:55:08;115.30;;;29.60;;
66619;SDS011;53484;51.356;6.732;2023-04-08T07:57:34;70.47;;;25.17;;
66619;SDS011;53484;51.356;6.732;2023-04-08T08:00:02;47.17;;;21.30;;
66619;SDS011;53484;51.356;6.732;2023-04-08T08:02:28;64.07;;;24.83;;
66619;SDS011;53484;51.356;6.732;2023-04-08T08:04:55;63.15;;;24.83;;
66619;SDS011;53484;51.356;6.732;2023-04-08T08:07:21;50.95;;;23.77;;
66619;SDS011;53484;51.356;6.732;2023-04-08T08:09:47;62.15;;;25.95;;
66619;SDS011;53484;51.356;6.732;2023-04-08T08:12:14;43.07;;;22.93;;
66619;SDS011;53484;51.356;6.732;2023-04-08T08:14:41;67.70;;;25.52;;
66619;SDS011;53484;51.356;6.732;2023-04-08T08:17:09;42.20;;;22.13;;
66619;SDS011;53484;51.356;6.732;2023-04-08T08:19:36;50.08;;;23.95;;
66619;SDS011;53484;51.356;6.732;2023-04-08T08:22:03;44.35;;;21.70;;
66619;SDS011;53484;51.356;6.732;2023-04-08T08:24:29;52.37;;;24.43;;
66619;SDS011;53484;51.356;6.732;2023-04-08T08:26:55;53.20;;;25.38;;
66619;SDS011;53484;51.356;6.732;2023-04-08T08:29:23;38.15;;;21.48;;
66619;SDS011;53484;51.356;6.732;2023-04-08T08:31:49;31.60;;;18.75;;
66619;SDS011;53484;51.356;6.732;2023-04-08T08:34:17;52.47;;;25.02;;
66619;SDS011;53484;51.356;6.732;2023-04-08T08:36:43;75.43;;;28.83;;
66619;SDS011;53484;51.356;6.732;2023-04-08T08:39:09;76.47;;;31.35;;
66619;SDS011;53484;51.356;6.732;2023-04-08T08:41:35;76.60;;;34.25;;
66619;SDS011;53484;51.356;6.732;2023-04-08T08:44:04;89.32;;;35.33;;
66619;SDS011;53484;51.356;6.732;2023-04-08T08:46:30;104.10;;;38.97;;
66619;SDS011;53484;51.356;6.732;2023-04-08T08:48:57;108.73;;;39.47;;
66619;SDS011;53484;51.356;6.732;2023-04-08T08:51:24;104.47;;;40.72;;
66619;SDS011;53484;51.356;6.732;2023-04-08T08:53:52;113.00;;;39.80;;
66619;SDS011;53484;51.356;6.732;2023-04-08T08:56:19;93.30;;;37.20;;
66619;SDS011;53484;51.356;6.732;2023-04-08T08:58:45;121.25;;;42.60;;
66619;SDS011;53484;51.356;6.732;2023-04-08T09:01:28;76.77;;;33.83;;
66619;SDS011;53484;51.356;6.732;2023-04-08T09:04:05;111.43;;;39.60;;
66619;SDS011;53484;51.356;6.732;2023-04-08T09:06:33;107.10;;;42.03;;
66619;SDS011;53484;51.356;6.732;2023-04-08T09:08:59;120.03;;;41.47;;
66619;SDS011;53484;51.356;6.732;2023-04-08T09:11:26;87.75;;;35.63;;
66619;SDS011;53484;51.356;6.732;2023-04-08T09:13:53;97.73;;;37.83;;
66619;SDS011;53484;51.356;6.732;2023-04-08T09:16:20;114.25;;;40.25;;
66619;SDS011;53484;51.356;6.732;2023-04-08T09:18:47;89.18;;;37.72;;
66619;SDS011;53484;51.356;6.732;2023-04-08T09:21:14;92.65;;;37.80;;
66619;SDS011;53484;51.356;6.732;2023-04-08T09:23:44;96.18;;;38.33;;
66619;SDS011;53484;51.356;6.732;2023-04-08T09:26:11;107.43;;;42.43;;
66619;SDS011;53484;51.356;6.732;2023-04-08T09:28:38;95.15;;;38.33;;
66619;SDS011;53484;51.356;6.732;2023-04-08T09:31:16;92.70;;;39.05;;
66619;SDS011;53484;51.356;6.732;2023-04-08T09:33:43;84.82;;;36.38;;
66619;SDS011;53484;51.356;6.732;2023-04-08T09:36:09;91.68;;;40.35;;
66619;SDS011;53484;51.356;6.732;2023-04-08T09:38:37;89.20;;;38.27;;
66619;SDS011;53484;51.356;6.732;2023-04-08T09:41:05;91.63;;;39.00;;
66619;SDS011;53484;51.356;6.732;2023-04-08T09:43:32;95.93;;;40.35;;
66619;SDS011;53484;51.356;6.732;2023-04-08T09:46:01;99.43;;;40.65;;
66619;SDS011;53484;51.356;6.732;2023-04-08T09:48:31;99.50;;;39.45;;
66619;SDS011;53484;51.356;6.732;2023-04-08T09:51:00;101.27;;;40.60;;
66619;SDS011;53484;51.356;6.732;2023-04-08T09:53:28;99.30;;;39.67;;
66619;SDS011;53484;51.356;6.732;2023-04-08T09:55:55;102.65;;;40.17;;
66619;SDS011;53484;51.356;6.732;2023-04-08T09:58:24;105.78;;;42.63;;
66619;SDS011;53484;51.356;6.732;2023-04-08T10:00:53;102.40;;;42.47;;
66619;SDS011;53484;51.356;6.732;2023-04-08T10:03:23;109.77;;;42.37;;
66619;SDS011;53484;51.356;6.732;2023-04-08T10:05:52;95.38;;;41.30;;
66619;SDS011;53484;51.356;6.732;2023-04-08T10:08:20;101.10;;;42.88;;
66619;SDS011;53484;51.356;6.732;2023-04-08T10:10:47;89.03;;;37.30;;
66619;SDS011;53484;51.356;6.732;2023-04-08T10:13:13;106.45;;;41.22;;
66619;SDS011;53484;51.356;6.732;2023-04-08T10:15:41;90.40;;;38.50;;
66619;SDS011;53484;51.356;6.732;2023-04-08T10:21:02;88.43;;;41.47;;
66619;SDS011;53484;51.356;6.732;2023-04-08T10:26:28;74.07;;;35.45;;
66619;SDS011;53484;51.356;6.732;2023-04-08T10:28:55;68.83;;;34.03;;
66619;SDS011;53484;51.356;6.732;2023-04-08T10:31:43;54.97;;;27.92;;
66619;SDS011;53484;51.356;6.732;2023-04-08T10:34:16;52.17;;;29.45;;
66619;SDS011;53484;51.356;6.732;2023-04-08T10:36:42;51.50;;;27.27;;
66619;SDS011;53484;51.356;6.732;2023-04-08T10:39:09;45.95;;;27.88;;
66619;SDS011;53484;51.356;6.732;2023-04-08T10:41:40;46.53;;;26.53;;
66619;SDS011;53484;51.356;6.732;2023-04-08T10:44:13;39.45;;;24.45;;
66619;SDS011;53484;51.356;6.732;2023-04-08T10:46:40;41.58;;;24.77;;
66619;SDS011;53484;51.356;6.732;2023-04-08T10:49:08;39.35;;;24.58;;
66619;SDS011;53484;51.356;6.732;2023-04-08T10:51:34;35.92;;;23.67;;
66619;SDS011;53484;51.356;6.732;2023-04-08T10:54:07;40.50;;;24.80;;
66619;SDS011;53484;51.356;6.732;2023-04-08T10:56:34;35.85;;;21.17;;
66619;SDS011;53484;51.356;6.732;2023-04-08T10:59:00;32.60;;;20.63;;
66619;SDS011;53484;51.356;6.732;2023-04-08T11:01:27;31.27;;;20.17;;
66619;SDS011;53484;51.356;6.732;2023-04-08T11:04:05;26.80;;;18.27;;
66619;SDS011;53484;51.356;6.732;2023-04-08T11:06:35;27.80;;;18.60;;
66619;SDS011;53484;51.356;6.732;2023-04-08T11:09:01;30.52;;;18.27;;
66619;SDS011;53484;51.356;6.732;2023-04-08T11:11:28;33.13;;;19.10;;
66619;SDS011;53484;51.356;6.732;2023-04-08T11:13:55;21.55;;;13.77;;
66619;SDS011;53484;51.356;6.732;2023-04-08T11:16:21;22.45;;;14.35;;
66619;SDS011;53484;51.356;6.732;2023-04-08T11:18:48;22.93;;;13.57;;
66619;SDS011;53484;51.356;6.732;2023-04-08T11:21:15;18.35;;;11.43;;
66619;SDS011;53484;51.356;6.732;2023-04-08T11:23:43;16.77;;;11.77;;
66619;SDS011;53484;51.356;6.732;2023-04-08T11:26:10;18.77;;;11.52;;
66619;SDS011;53484;51.356;6.732;2023-04-08T11:28:36;16.25;;;10.68;;
66619;SDS011;53484;51.356;6.732;2023-04-08T11:31:03;14.40;;;9.60;;
66619;SDS011;53484;51.356;6.732;2023-04-08T11:33:29;17.45;;;10.50;;
66619;SDS011;53484;51.356;6.732;2023-04-08T11:35:56;15.60;;;10.32;;
66619;SDS011;53484;51.356;6.732;2023-04-08T11:38:23;15.35;;;9.98;;
66619;SDS011;53484;51.356;6.732;2023-04-08T11:40:54;15.13;;;9.98;;
66619;SDS011;53484;51.356;6.732;2023-04-08T11:43:21;18.37;;;10.30;;
66619;SDS011;53484;51.356;6.732;2023-04-08T11:45:47;17.70;;;10.57;;
66619;SDS011;53484;51.356;6.732;2023-04-08T11:48:14;15.77;;;9.98;;
66619;SDS011;53484;51.356;6.732;2023-04-08T11:50:40;16.35;;;10.00;;
66619;SDS011;53484;51.356;6.732;2023-04-08T11:53:14;18.50;;;10.30;;
66619;SDS011;53484;51.356;6.732;2023-04-08T11:55:41;16.40;;;10.60;;
66619;SDS011;53484;51.356;6.732;2023-04-08T11:58:09;16.40;;;9.93;;
66619;SDS011;53484;51.356;6.732;2023-04-08T12:00:35;16.77;;;9.88;;
66619;SDS011;53484;51.356;6.732;2023-04-08T12:03:02;15.15;;;9.82;;
66619;SDS011;53484;51.356;6.732;2023-04-08T12:05:28;15.48;;;9.50;;
66619;SDS011;53484;51.356;6.732;2023-04-08T12:07:55;14.73;;;9.63;;
66619;SDS011;53484;51.356;6.732;2023-04-08T12:10:21;14.75;;;9.77;;
66619;SDS011;53484;51.356;6.732;2023-04-08T12:12:49;14.43;;;9.43;;
66619;SDS011;53484;51.356;6.732;2023-04-08T12:15:17;16.00;;;9.32;;
66619;SDS011;53484;51.356;6.732;2023-04-08T12:17:43;18.88;;;11.05;;
66619;SDS011;53484;51.356;6.732;2023-04-08T12:20:09;15.70;;;10.27;;
66619;SDS011;53484;51.356;6.732;2023-04-08T12:22:36;16.08;;;9.88;;
66619;SDS011;53484;51.356;6.732;2023-04-08T12:25:03;15.02;;;9.80;;
66619;SDS011;53484;51.356;6.732;2023-04-08T12:27:30;15.43;;;9.75;;
66619;SDS011;53484;51.356;6.732;2023-04-08T12:29:57;16.50;;;10.43;;
66619;SDS011;53484;51.356;6.732;2023-04-08T12:32:25;15.30;;;10.23;;
66619;SDS011;53484;51.356;6.732;2023-04-08T12:34:51;13.85;;;9.70;;
66619;SDS011;53484;51.356;6.732;2023-04-08T12:37:17;15.45;;;9.52;;
66619;SDS011;53484;51.356;6.732;2023-04-08T12:39:44;16.13;;;9.55;;
66619;SDS011;53484;51.356;6.732;2023-04-08T12:42:11;19.13;;;10.63;;
66619;SDS011;53484;51.356;6.732;2023-04-08T12:44:38;14.60;;;10.10;;
66619;SDS011;53484;51.356;6.732;2023-04-08T12:47:04;17.48;;;10.25;;
66619;SDS011;53484;51.356;6.732;2023-04-08T12:49:32;13.93;;;10.23;;
66619;SDS011;53484;51.356;6.732;2023-04-08T12:51:58;15.20;;;10.85;;
66619;SDS011;53484;51.356;6.732;2023-04-08T12:54:24;16.63;;;10.27;;
66619;SDS011;53484;51.356;6.732;2023-04-08T12:56:51;14.23;;;9.20;;
66619;SDS011;53484;51.356;6.732;2023-04-08T12:59:17;15.60;;;8.52;;
66619;SDS011;53484;51.356;6.732;2023-04-08T13:01:43;15.60;;;9.30;;
66619;SDS011;53484;51.356;6.732;2023-04-08T13:04:10;15.90;;;8.48;;
66619;SDS011;53484;51.356;6.732;2023-04-08T13:06:38;11.65;;;7.95;;
66619;SDS011;53484;51.356;6.732;2023-04-08T13:09:04;12.83;;;8.10;;
66619;SDS011;53484;51.356;6.732;2023-04-08T13:11:30;10.77;;;6.95;;
66619;SDS011;53484;51.356;6.732;2023-04-08T13:13:58;11.40;;;6.75;;
66619;SDS011;53484;51.356;6.732;2023-04-08T13:16:24;11.27;;;7.00;;
66619;SDS011;53484;51.356;6.732;2023-04-08T13:18:51;11.18;;;6.28;;
66619;SDS011;53484;51.356;6.732;2023-04-08T13:21:17;12.70;;;5.93;;
66619;SDS011;53484;51.356;6.732;2023-04-08T13:23:45;10.68;;;6.10;;
66619;SDS011;53484;51.356;6.732;2023-04-08T13:26:11;9.63;;;6.35;;
66619;SDS011;53484;51.356;6.732;2023-04-08T13:28:38;11.32;;;6.10;;
66619;SDS011;53484;51.356;6.732;2023-04-08T13:31:04;9.32;;;6.60;;
66619;SDS011;53484;51.356;6.732;2023-04-08T13:33:30;12.37;;;6.20;;
66619;SDS011;53484;51.356;6.732;2023-04-08T13:35:57;11.02;;;5.93;;
66619;SDS011;53484;51.356;6.732;2023-04-08T13:38:23;9.77;;;6.68;;
66619;SDS011;53484;51.356;6.732;2023-04-08T13:40:50;10.13;;;6.45;;
66619;SDS011;53484;51.356;6.732;2023-04-08T13:43:17;12.18;;;6.90;;
66619;SDS011;53484;51.356;6.732;2023-04-08T13:45:44;11.37;;;6.57;;
66619;SDS011;53484;51.356;6.732;2023-04-08T13:48:10;12.82;;;7.93;;
66619;SDS011;53484;51.356;6.732;2023-04-08T13:50:37;13.60;;;8.18;;
66619;SDS011;53484;51.356;6.732;2023-04-08T13:53:04;12.52;;;8.55;;
66619;SDS011;53484;51.356;6.732;2023-04-08T13:55:30;14.43;;;8.20;;
66619;SDS011;53484;51.356;6.732;2023-04-08T13:57:58;13.00;;;9.53;;
66619;SDS011;53484;51.356;6.732;2023-04-08T14:00:25;13.60;;;9.95;;
66619;SDS011;53484;51.356;6.732;2023-04-08T14:02:52;14.93;;;10.27;;
66619;SDS011;53484;51.356;6.732;2023-04-08T14:05:18;15.20;;;10.73;;
66619;SDS011;53484;51.356;6.732;2023-04-08T14:07:44;14.65;;;10.27;;
66619;SDS011;53484;51.356;6.732;2023-04-08T14:10:11;14.00;;;9.87;;
66619;SDS011;53484;51.356;6.732;2023-04-08T14:12:38;12.75;;;9.27;;
66619;SDS011;53484;51.356;6.732;2023-04-08T14:15:07;13.13;;;8.70;;
66619;SDS011;53484;51.356;6.732;2023-04-08T14:17:33;13.45;;;8.88;;
66619;SDS011;53484;51.356;6.732;2023-04-08T14:20:00;16.67;;;10.43;;
66619;SDS011;53484;51.356;6.732;2023-04-08T14:22:27;15.60;;;10.40;;